createdAt,value
2023-08-26T00:02:08.317Z,100411.72
2023-08-26T00:04:36.533Z,100411.09
2023-08-26T00:07:04.655Z,100403.31
2023-08-26T00:09:32.658Z,100407.97
2023-08-26T00:12:00.629Z,100410.28
2023-08-26T00:14:30.039Z,100409.16
2023-08-26T00:16:58.766Z,100409.16
2023-08-26T00:19:26.993Z,100407.97
2023-08-26T00:21:54.951Z,100402.66
2023-08-26T00:24:23.032Z,100405.69
2023-08-26T00:26:51.206Z,100399.84
2023-08-26T00:29:19.223Z,100395.81
2023-08-26T00:31:48.648Z,100395.13
2023-08-26T00:34:16.725Z,100392.13
2023-08-26T00:36:44.690Z,100399.03
2023-08-26T00:39:12.663Z,100396.38
2023-08-26T00:41:40.636Z,100404.31
2023-08-26T00:44:08.627Z,100401.72
2023-08-26T00:46:37.512Z,100409.91
2023-08-26T00:49:07.970Z,100400.44
2023-08-26T00:51:36.682Z,100405.63
2023-08-26T00:54:06.103Z,100407.44
2023-08-26T00:56:35.071Z,100414.25
2023-08-26T00:59:03.187Z,100412.84
2023-08-26T01:01:34.159Z,100423.03
2023-08-26T01:04:02.202Z,100421.31
2023-08-26T01:06:31.606Z,100416.31
2023-08-26T01:08:59.777Z,100418.25
2023-08-26T01:11:42.374Z,100422.78
2023-08-26T01:14:16.929Z,100409.13
2023-08-26T01:16:44.904Z,100412.59
2023-08-26T01:19:23.640Z,100419.38
2023-08-26T01:21:58.781Z,100415.66
2023-08-26T01:24:28.824Z,100414.41
2023-08-26T01:26:56.829Z,100415.69
2023-08-26T01:29:24.991Z,100404.09
2023-08-26T01:32:00.811Z,100406.38
2023-08-26T01:34:33.054Z,100414.16
2023-08-26T01:37:04.027Z,100407.56
2023-08-26T01:39:33.876Z,100410.84
2023-08-26T01:42:04.394Z,100403.25
2023-08-26T01:44:33.649Z,100409.13
2023-08-26T01:47:01.588Z,100401.81
2023-08-26T01:49:29.575Z,100409.78
2023-08-26T01:51:57.611Z,100411.78
2023-08-26T01:54:25.711Z,100408.47
2023-08-26T01:56:55.074Z,100392.63
2023-08-26T01:59:23.169Z,100401.69
2023-08-26T02:01:51.326Z,100394.72
2023-08-26T02:04:19.490Z,100401.16
2023-08-26T02:06:47.536Z,100396.53
2023-08-26T02:09:15.470Z,100396.53
2023-08-26T02:11:43.495Z,100401.09
2023-08-26T02:14:12.966Z,100405.38
2023-08-26T02:16:41.125Z,100399.78
2023-08-26T02:19:09.320Z,100404.47
2023-08-26T02:21:37.340Z,100407.94
2023-08-26T02:24:05.678Z,100415.06
2023-08-26T02:26:34.114Z,100389.34
2023-08-26T02:29:02.083Z,100403.50
2023-08-26T02:31:31.506Z,100415.41
2023-08-26T02:33:59.527Z,100417.75
2023-08-26T02:36:27.523Z,100418.78
2023-08-26T02:38:56.968Z,100403.59
2023-08-26T02:41:25.101Z,100410.53
2023-08-26T02:43:53.072Z,100418.00
2023-08-26T02:46:21.056Z,100407.19
2023-08-26T02:48:51.762Z,100421.53
2023-08-26T02:51:19.798Z,100411.94
2023-08-26T02:53:47.751Z,100422.09
2023-08-26T02:56:16.150Z,100417.44
2023-08-26T02:58:44.130Z,100422.91
2023-08-26T03:01:12.160Z,100416.69
2023-08-26T03:03:40.252Z,100411.56
2023-08-26T03:06:09.627Z,100416.56
2023-08-26T03:08:37.728Z,100417.56
2023-08-26T03:11:08.905Z,100421.38
2023-08-26T03:13:36.992Z,100416.41
2023-08-26T03:16:09.119Z,100417.25
2023-08-26T03:18:37.210Z,100409.66
2023-08-26T03:21:06.282Z,100422.72
2023-08-26T03:23:36.150Z,100413.66
2023-08-26T03:26:04.730Z,100398.16
2023-08-26T03:28:32.743Z,100413.50
2023-08-26T03:31:06.286Z,100419.19
2023-08-26T03:33:35.466Z,100426.78
2023-08-26T03:36:05.394Z,100424.84
2023-08-26T03:38:33.766Z,100435.44
2023-08-26T03:41:04.092Z,100439.06
2023-08-26T03:43:32.244Z,100440.41
2023-08-26T03:46:00.737Z,100436.28
2023-08-26T03:48:28.822Z,100435.00
2023-08-26T03:50:59.131Z,100438.78
2023-08-26T03:53:28.495Z,100438.13
2023-08-26T03:55:56.565Z,100436.97
2023-08-26T03:58:27.979Z,100431.50
2023-08-26T04:01:01.940Z,100423.91
2023-08-26T04:03:30.075Z,100426.38
2023-08-26T04:06:02.187Z,100425.22
2023-08-26T04:08:31.426Z,100436.44
2023-08-26T04:10:59.901Z,100438.09
2023-08-26T04:13:31.528Z,100434.56
2023-08-26T04:15:59.806Z,100435.22
2023-08-26T04:18:27.929Z,100427.41
2023-08-26T04:20:55.979Z,100439.59
2023-08-26T04:23:24.082Z,100440.75
2023-08-26T04:25:53.347Z,100432.09
2023-08-26T04:28:21.327Z,100428.59
2023-08-26T04:30:51.414Z,100435.78
2023-08-26T04:33:20.361Z,100426.50
2023-08-26T04:35:48.352Z,100441.59
2023-08-26T04:38:16.492Z,100425.94
2023-08-26T04:40:44.868Z,100434.47
2023-08-26T04:43:13.143Z,100439.81
2023-08-26T04:45:41.819Z,100440.91
2023-08-26T04:48:11.321Z,100448.41
2023-08-26T04:50:41.558Z,100450.59
2023-08-26T04:53:09.556Z,100443.84
2023-08-26T04:55:38.107Z,100445.94
2023-08-26T04:58:08.975Z,100447.88
2023-08-26T05:00:38.057Z,100439.78
2023-08-26T05:03:06.422Z,100454.69
2023-08-26T05:05:35.842Z,100451.44
2023-08-26T05:08:04.001Z,100447.19
2023-08-26T05:10:32.021Z,100444.72
2023-08-26T05:13:00.019Z,100441.97
2023-08-26T05:15:29.967Z,100450.34
2023-08-26T05:17:58.391Z,100440.06
2023-08-26T05:20:26.738Z,100456.16
2023-08-26T05:22:56.202Z,100440.47
2023-08-26T05:25:24.304Z,100448.16
2023-08-26T05:27:52.310Z,100449.47
2023-08-26T05:30:20.602Z,100436.44
2023-08-26T05:32:48.702Z,100431.97
2023-08-26T05:35:16.915Z,100439.22
2023-08-26T05:37:46.501Z,100443.97
2023-08-26T05:40:17.645Z,100423.84
2023-08-26T05:42:45.724Z,100434.91
2023-08-26T05:45:13.748Z,100441.91
2023-08-26T05:47:41.735Z,100453.53
2023-08-26T05:50:10.490Z,100445.47
2023-08-26T05:52:38.446Z,100456.31
2023-08-26T05:55:07.129Z,100451.69
2023-08-26T05:57:36.511Z,100448.94
2023-08-26T06:00:05.942Z,100453.03
2023-08-26T06:02:34.000Z,100449.38
2023-08-26T06:05:02.031Z,100444.59
2023-08-26T06:07:29.994Z,100455.44
2023-08-26T06:09:57.930Z,100453.53
2023-08-26T06:12:25.895Z,100461.69
2023-08-26T06:14:55.394Z,100456.28
2023-08-26T06:17:23.363Z,100471.13
2023-08-26T06:19:51.399Z,100472.25
2023-08-26T06:22:19.471Z,100475.56
2023-08-26T06:24:47.397Z,100471.03
2023-08-26T06:27:15.348Z,100470.19
2023-08-26T06:29:45.932Z,100458.19
2023-08-26T06:32:15.308Z,100469.06
2023-08-26T06:34:43.727Z,100475.75
2023-08-26T06:37:11.695Z,100482.06
2023-08-26T06:39:39.754Z,100475.28
2023-08-26T06:42:08.198Z,100480.63
2023-08-26T06:44:36.195Z,100486.72
2023-08-26T06:47:04.419Z,100489.56
2023-08-26T06:49:33.771Z,100497.19
2023-08-26T06:52:01.850Z,100498.97
2023-08-26T06:54:31.656Z,100491.88
2023-08-26T06:57:00.836Z,100492.75
2023-08-26T06:59:28.813Z,100492.00
2023-08-26T07:01:56.801Z,100498.66
2023-08-26T07:04:26.848Z,100462.16
2023-08-26T07:06:56.168Z,100493.75
2023-08-26T07:09:24.395Z,100497.19
2023-08-26T07:11:52.445Z,100499.63
2023-08-26T07:14:20.460Z,100497.50
2023-08-26T07:16:48.510Z,100482.06
2023-08-26T07:19:16.610Z,100491.16
2023-08-26T07:21:44.710Z,100492.13
2023-08-26T07:24:15.495Z,100498.44
2023-08-26T07:26:43.698Z,100500.13
2023-08-26T07:29:11.896Z,100501.63
2023-08-26T07:31:40.040Z,100471.59
2023-08-26T07:34:08.120Z,100502.84
2023-08-26T07:36:36.492Z,100501.69
2023-08-26T07:39:05.492Z,100500.34
2023-08-26T07:41:34.848Z,100483.59
2023-08-26T07:44:04.291Z,100495.94
2023-08-26T07:49:03.153Z,100494.00
2023-08-26T07:51:31.181Z,100493.13
2023-08-26T07:53:59.200Z,100482.06
2023-08-26T07:56:27.392Z,100483.84
2023-08-26T07:58:56.728Z,100491.41
2023-08-26T08:01:24.732Z,100483.50
2023-08-26T08:03:52.801Z,100483.19
2023-08-26T08:06:21.004Z,100483.84
2023-08-26T08:08:49.050Z,100482.50
2023-08-26T08:11:17.043Z,100481.38
2023-08-26T08:13:45.310Z,100471.91
2023-08-26T08:16:15.607Z,100485.09
2023-08-26T08:18:43.622Z,100477.25
2023-08-26T08:21:11.667Z,100484.25
2023-08-26T08:23:42.303Z,100478.16
2023-08-26T08:26:10.518Z,100463.34
2023-08-26T08:28:38.542Z,100479.88
2023-08-26T08:31:06.867Z,100475.00
2023-08-26T08:33:36.511Z,100472.19
2023-08-26T08:36:04.912Z,100474.44
2023-08-26T08:38:32.983Z,100467.91
2023-08-26T08:41:01.049Z,100464.16
2023-08-26T08:43:31.956Z,100470.03
2023-08-26T08:46:00.103Z,100465.97
2023-08-26T08:48:29.437Z,100462.59
2023-08-26T08:51:01.132Z,100464.94
2023-08-26T08:53:32.573Z,100458.94
2023-08-26T08:56:02.762Z,100459.47
2023-08-26T08:58:31.981Z,100453.44
2023-08-26T09:01:01.452Z,100456.66
2023-08-26T09:03:29.637Z,100449.66
2023-08-26T09:05:59.316Z,100445.72
2023-08-26T09:08:28.627Z,100442.38
2023-08-26T09:10:57.248Z,100444.84
2023-08-26T09:13:25.399Z,100434.44
2023-08-26T09:15:54.311Z,100437.69
2023-08-26T09:18:22.444Z,100438.72
2023-08-26T09:20:50.572Z,100435.59
2023-08-26T09:23:20.061Z,100438.16
2023-08-26T09:25:56.236Z,100431.38
2023-08-26T09:28:25.613Z,100439.59
2023-08-26T09:31:06.781Z,100432.28
2023-08-26T09:33:35.208Z,100436.56
2023-08-26T09:38:45.588Z,100432.63
2023-08-26T09:41:14.043Z,100438.63
2023-08-26T09:43:44.364Z,100431.88
2023-08-26T09:46:19.674Z,100432.41
2023-08-26T09:48:49.303Z,100436.69
2023-08-26T09:51:27.700Z,100428.13
2023-08-26T09:53:57.356Z,100430.19
2023-08-26T09:56:26.700Z,100425.34
2023-08-26T09:58:55.681Z,100428.00
2023-08-26T10:01:25.205Z,100431.69
2023-08-26T10:03:59.714Z,100418.16
2023-08-26T10:06:31.873Z,100415.00
2023-08-26T10:09:08.941Z,100412.38
2023-08-26T10:11:40.756Z,100401.84
2023-08-26T10:14:13.808Z,100393.44
2023-08-26T10:16:45.365Z,100393.16
2023-08-26T10:19:15.775Z,100405.41
2023-08-26T10:21:45.320Z,100402.16
2023-08-26T10:24:16.601Z,100400.22
2023-08-26T10:26:45.581Z,100401.31
2023-08-26T10:29:14.074Z,100388.13
2023-08-26T10:31:44.547Z,100393.06
2023-08-26T10:34:16.815Z,100387.31
2023-08-26T10:36:49.156Z,100393.19
2023-08-26T10:39:20.534Z,100382.81
2023-08-26T10:42:15.544Z,100389.72
2023-08-26T10:44:46.902Z,100380.50
2023-08-26T10:47:35.087Z,100393.03
2023-08-26T10:50:20.800Z,100393.97
2023-08-26T10:52:53.481Z,100395.44
2023-08-26T10:55:24.874Z,100390.97
2023-08-26T10:58:13.379Z,100391.91
2023-08-26T11:00:43.147Z,100387.22
2023-08-26T11:03:12.255Z,100381.16
2023-08-26T11:05:42.654Z,100377.00
2023-08-26T11:08:11.105Z,100376.59
2023-08-26T11:10:41.937Z,100370.56
2023-08-26T11:13:12.027Z,100378.34
2023-08-26T11:15:42.300Z,100380.00
2023-08-26T11:18:13.070Z,100372.34
2023-08-26T11:20:41.450Z,100378.91
2023-08-26T11:23:09.831Z,100362.41
2023-08-26T11:25:38.988Z,100365.75
2023-08-26T11:28:09.930Z,100363.28
2023-08-26T11:30:38.731Z,100360.56
2023-08-26T11:33:11.346Z,100364.09
2023-08-26T11:35:43.569Z,100363.84
2023-08-26T11:38:14.071Z,100356.84
2023-08-26T11:40:42.591Z,100360.09
2023-08-26T11:43:13.354Z,100353.59
2023-08-26T11:45:43.813Z,100351.97
2023-08-26T11:48:13.243Z,100343.56
2023-08-26T11:50:43.073Z,100334.09
2023-08-26T11:53:11.497Z,100337.34
2023-08-26T11:55:40.851Z,100328.72
2023-08-26T11:58:10.039Z,100325.72
2023-08-26T12:00:39.701Z,100339.53
2023-08-26T12:03:10.885Z,100332.53
2023-08-26T12:05:47.284Z,100332.78
2023-08-26T12:08:16.963Z,100337.38
2023-08-26T12:10:49.152Z,100333.56
2023-08-26T12:13:17.483Z,100331.13
2023-08-26T12:15:48.067Z,100329.25
2023-08-26T12:18:16.884Z,100323.84
2023-08-26T12:20:47.983Z,100328.44
2023-08-26T12:23:20.050Z,100319.78
2023-08-26T12:25:48.365Z,100324.38
2023-08-26T12:28:19.444Z,100315.72
2023-08-26T12:30:49.781Z,100309.50
2023-08-26T12:33:26.335Z,100311.38
2023-08-26T12:35:57.023Z,100287.03
2023-08-26T12:38:26.033Z,100297.28
2023-08-26T12:40:54.110Z,100307.31
2023-08-26T12:43:22.796Z,100301.34
2023-08-26T12:45:52.598Z,100295.41
2023-08-26T12:50:52.030Z,100296.50
2023-08-26T12:53:20.191Z,100303.00
2023-08-26T12:55:48.409Z,100294.59
2023-08-26T12:58:22.797Z,100287.03
2023-08-26T13:00:52.911Z,100288.38
2023-08-26T13:03:21.588Z,100289.16
2023-08-26T13:05:53.218Z,100281.06
2023-08-26T13:08:21.471Z,100281.34
2023-08-26T13:10:49.936Z,100272.09
2023-08-26T13:13:18.128Z,100287.28
2023-08-26T13:15:46.489Z,100272.69
2023-08-26T13:18:16.440Z,100264.25
2023-08-26T13:20:44.612Z,100277.50
2023-08-26T13:23:12.962Z,100270.22
2023-08-26T13:25:41.433Z,100254.50
2023-08-26T13:28:11.340Z,100268.00
2023-08-26T13:30:39.858Z,100270.16
2023-08-26T13:33:07.996Z,100267.22
2023-08-26T13:35:37.716Z,100269.13
2023-08-26T13:38:06.298Z,100262.59
2023-08-26T13:40:34.622Z,100274.50
2023-08-26T13:43:02.850Z,100272.53
2023-08-26T13:45:31.027Z,100265.81
2023-08-26T13:48:00.096Z,100255.78
2023-08-26T13:50:30.631Z,100260.41
2023-08-26T13:53:00.511Z,100260.63
2023-08-26T13:55:28.615Z,100257.06
2023-08-26T13:57:57.733Z,100253.56
2023-08-26T14:00:25.872Z,100246.28
2023-08-26T14:02:54.105Z,100247.13
2023-08-26T14:05:24.671Z,100241.72
2023-08-26T14:07:55.902Z,100244.41
2023-08-26T14:10:25.725Z,100241.41
2023-08-26T14:12:53.752Z,100238.16
2023-08-26T14:15:21.745Z,100233.06
2023-08-26T14:17:49.922Z,100243.56
2023-08-26T14:20:18.247Z,100240.03
2023-08-26T14:22:46.386Z,100242.72
2023-08-26T14:25:14.727Z,100204.94
2023-08-26T14:27:44.438Z,100238.50
2023-08-26T14:30:13.297Z,100233.09
2023-08-26T14:32:41.568Z,100217.97
2023-08-26T14:35:10.509Z,100230.94
2023-08-26T14:37:38.842Z,100217.16
2023-08-26T14:40:07.986Z,100227.06
2023-08-26T14:42:36.168Z,100226.78
2023-08-26T14:45:06.466Z,100221.69
2023-08-26T14:47:34.510Z,100211.91
2023-08-26T14:50:02.633Z,100217.34
2023-08-26T14:52:30.932Z,100220.06
2023-08-26T14:54:58.953Z,100219.44
2023-08-26T14:57:27.732Z,100219.16
2023-08-26T14:59:56.003Z,100212.47
2023-08-26T15:02:26.390Z,100212.97
2023-08-26T15:04:56.457Z,100208.88
2023-08-26T15:07:25.948Z,100198.06
2023-08-26T15:09:54.137Z,100194.19
2023-08-26T15:12:22.485Z,100208.50
2023-08-26T15:14:50.677Z,100198.72
2023-08-26T15:17:18.909Z,100193.56
2023-08-26T15:19:48.434Z,100200.31
2023-08-26T15:22:16.623Z,100199.50
2023-08-26T15:24:45.169Z,100198.13
2023-08-26T15:27:13.370Z,100200.78
2023-08-26T15:29:41.540Z,100206.88
2023-08-26T15:32:09.719Z,100200.66
2023-08-26T15:34:37.889Z,100203.22
2023-08-26T15:37:07.743Z,100198.38
2023-08-26T15:39:36.910Z,100198.97
2023-08-26T15:42:05.499Z,100202.47
2023-08-26T15:44:33.608Z,100198.19
2023-08-26T15:47:01.845Z,100204.72
2023-08-26T15:49:29.905Z,100185.91
2023-08-26T15:51:58.192Z,100191.97
2023-08-26T15:54:28.048Z,100194.47
2023-08-26T15:56:56.120Z,100194.00
2023-08-26T15:59:24.240Z,100194.69
2023-08-26T16:01:54.138Z,100192.56
2023-08-26T16:04:22.397Z,100190.38
2023-08-26T16:06:50.497Z,100188.53
2023-08-26T16:09:18.687Z,100182.31
2023-08-26T16:11:48.245Z,100193.00
2023-08-26T16:14:16.512Z,100194.34
2023-08-26T16:16:44.648Z,100180.13
2023-08-26T16:19:12.859Z,100184.88
2023-08-26T16:21:41.290Z,100183.44
2023-08-26T16:24:09.441Z,100186.69
2023-08-26T16:26:37.610Z,100181.94
2023-08-26T16:29:07.660Z,100185.84
2023-08-26T16:31:35.871Z,100185.91
2023-08-26T16:34:04.084Z,100185.47
2023-08-26T16:36:32.689Z,100190.25
2023-08-26T16:39:00.920Z,100190.72
2023-08-26T16:41:29.145Z,100189.31
2023-08-26T16:43:57.275Z,100181.91
2023-08-26T16:46:26.845Z,100192.66
2023-08-26T16:48:55.383Z,100185.00
2023-08-26T16:51:23.641Z,100189.72
2023-08-26T16:53:51.747Z,100186.22
2023-08-26T16:56:19.862Z,100179.66
2023-08-26T16:58:48.028Z,100193.50
2023-08-26T17:01:16.169Z,100199.16
2023-08-26T17:03:46.475Z,100197.47
2023-08-26T17:06:16.040Z,100194.28
2023-08-26T17:08:44.230Z,100200.13
2023-08-26T17:11:12.656Z,100206.31
2023-08-26T17:13:41.550Z,100208.88
2023-08-26T17:16:09.775Z,100212.66
2023-08-26T17:18:37.872Z,100208.16
2023-08-26T17:21:07.530Z,100208.66
2023-08-26T17:23:35.675Z,100219.38
2023-08-26T17:26:04.234Z,100227.84
2023-08-26T17:28:32.729Z,100225.03
2023-08-26T17:31:01.278Z,100229.66
2023-08-26T17:33:29.904Z,100225.47
2023-08-26T17:35:58.070Z,100232.72
2023-08-26T17:38:28.062Z,100249.16
2023-08-26T17:40:57.864Z,100249.38
2023-08-26T17:43:25.987Z,100245.84
2023-08-26T17:45:54.246Z,100256.09
2023-08-26T17:48:22.240Z,100246.78
2023-08-26T17:50:51.228Z,100260.19
2023-08-26T17:53:19.366Z,100265.47
2023-08-26T17:55:49.171Z,100262.09
2023-08-26T17:58:17.310Z,100265.72
2023-08-26T18:00:48.224Z,100235.00
2023-08-26T18:03:16.961Z,100272.69
2023-08-26T18:05:45.481Z,100275.69
2023-08-26T18:08:16.663Z,100278.00
2023-08-26T18:10:44.778Z,100281.50
2023-08-26T18:13:14.242Z,100279.09
2023-08-26T18:15:42.348Z,100271.94
2023-08-26T18:18:10.772Z,100295.28
2023-08-26T18:20:39.104Z,100291.31
2023-08-26T18:23:07.395Z,100290.00
2023-08-26T18:25:35.484Z,100299.78
2023-08-26T18:28:03.582Z,100308.31
2023-08-26T18:30:33.038Z,100304.13
2023-08-26T18:33:01.369Z,100305.59
2023-08-26T18:35:29.638Z,100295.25
2023-08-26T18:37:57.876Z,100304.03
2023-08-26T18:40:26.570Z,100308.72
2023-08-26T18:42:55.868Z,100313.38
2023-08-26T18:45:24.143Z,100310.28
2023-08-26T18:47:53.832Z,100306.13
2023-08-26T18:50:21.872Z,100298.31
2023-08-26T18:52:50.028Z,100309.06
2023-08-26T18:55:18.376Z,100308.88
2023-08-26T18:57:46.687Z,100319.59
2023-08-26T19:00:15.278Z,100322.13
2023-08-26T19:02:44.162Z,100309.38
2023-08-26T19:05:13.695Z,100324.25
2023-08-26T19:07:42.049Z,100324.69
2023-08-26T19:10:11.018Z,100325.50
2023-08-26T19:12:39.460Z,100320.50
2023-08-26T19:15:08.485Z,100321.09
2023-08-26T19:17:36.623Z,100312.25
2023-08-26T19:20:05.003Z,100319.66
2023-08-26T19:22:34.529Z,100327.19
2023-08-26T19:25:02.486Z,100317.53
2023-08-26T19:27:30.568Z,100324.25
2023-08-26T19:29:58.579Z,100318.34
2023-08-26T19:32:26.781Z,100321.06
2023-08-26T19:34:55.075Z,100317.81
2023-08-26T19:37:23.199Z,100317.06
2023-08-26T19:39:52.696Z,100327.53
2023-08-26T19:42:20.793Z,100327.34
2023-08-26T19:44:48.844Z,100323.88
2023-08-26T19:47:16.851Z,100319.94
2023-08-26T19:49:44.816Z,100323.66
2023-08-26T19:52:12.816Z,100325.78
2023-08-26T19:54:41.025Z,100315.19
2023-08-26T19:57:11.122Z,100317.44
2023-08-26T19:59:39.591Z,100309.84
2023-08-26T20:02:08.238Z,100319.72
2023-08-26T20:04:36.378Z,100319.34
2023-08-26T20:07:04.816Z,100318.41
2023-08-26T20:09:33.183Z,100325.38
2023-08-26T20:12:01.364Z,100307.94
2023-08-26T20:14:31.093Z,100330.50
2023-08-26T20:16:59.087Z,100330.91
2023-08-26T20:19:27.279Z,100321.50
2023-08-26T20:21:58.580Z,100317.59
2023-08-26T20:24:27.902Z,100328.13
2023-08-26T20:26:56.265Z,100318.31
2023-08-26T20:29:24.858Z,100297.81
2023-08-26T20:31:54.817Z,100320.78
2023-08-26T20:34:23.480Z,100321.41
2023-08-26T20:36:52.028Z,100326.53
2023-08-26T20:39:20.289Z,100316.09
2023-08-26T20:41:48.438Z,100320.63
2023-08-26T20:44:16.583Z,100313.44
2023-08-26T20:46:44.816Z,100318.97
2023-08-26T20:49:14.313Z,100316.09
2023-08-26T20:51:42.791Z,100319.59
2023-08-26T20:54:11.057Z,100318.38
2023-08-26T20:56:39.272Z,100320.84
2023-08-26T20:59:07.575Z,100313.25
2023-08-26T21:01:35.930Z,100326.19
2023-08-26T21:04:04.321Z,100333.97
2023-08-26T21:06:33.779Z,100324.34
2023-08-26T21:09:01.915Z,100327.00
2023-08-26T21:11:30.327Z,100327.63
2023-08-26T21:13:58.377Z,100329.06
2023-08-26T21:16:27.225Z,100300.34
2023-08-26T21:18:55.817Z,100310.38
2023-08-26T21:21:23.929Z,100331.72
2023-08-26T21:23:53.550Z,100325.75
2023-08-26T21:26:22.532Z,100312.00
2023-08-26T21:28:50.662Z,100328.22
2023-08-26T21:31:18.881Z,100324.13
2023-08-26T21:33:47.209Z,100331.09
2023-08-26T21:36:15.701Z,100331.06
2023-08-26T21:38:44.006Z,100336.44
2023-08-26T21:41:13.599Z,100329.44
2023-08-26T21:43:41.809Z,100327.81
2023-08-26T21:46:09.976Z,100327.19
2023-08-26T21:48:38.289Z,100329.44
2023-08-26T21:51:09.795Z,100331.47
2023-08-26T21:53:37.996Z,100332.25
2023-08-26T21:56:06.812Z,100328.97
2023-08-26T21:58:36.402Z,100321.97
2023-08-26T22:01:04.535Z,100330.59
2023-08-26T22:03:33.042Z,100321.56
2023-08-26T22:06:02.039Z,100317.47
2023-08-26T22:08:30.347Z,100323.63
2023-08-26T22:10:58.455Z,100318.47
2023-08-26T22:13:26.628Z,100320.13
2023-08-26T22:15:59.056Z,100321.13
2023-08-26T22:18:27.898Z,100315.59
2023-08-26T22:20:56.196Z,100318.03
2023-08-26T22:23:24.924Z,100310.00
2023-08-26T22:25:53.115Z,100310.25
2023-08-26T22:28:21.347Z,100309.81
2023-08-26T22:30:50.201Z,100311.25
2023-08-26T22:33:19.727Z,100300.75
2023-08-26T22:35:48.313Z,100307.97
2023-08-26T22:38:17.745Z,100303.41
2023-08-26T22:40:45.994Z,100305.47
2023-08-26T22:43:14.300Z,100301.19
2023-08-26T22:45:43.561Z,100303.63
2023-08-26T22:48:11.731Z,100299.34
2023-08-26T22:50:41.769Z,100305.00
2023-08-26T22:53:10.184Z,100300.06
2023-08-26T22:55:38.233Z,100304.56
2023-08-26T22:58:06.555Z,100302.03
2023-08-26T23:00:35.103Z,100293.88
2023-08-26T23:03:03.640Z,100299.88
2023-08-26T23:05:32.491Z,100300.06
2023-08-26T23:08:02.326Z,100299.66
2023-08-26T23:10:30.443Z,100292.00
2023-08-26T23:12:58.819Z,100300.00
2023-08-26T23:15:27.111Z,100277.44
2023-08-26T23:17:55.207Z,100299.53
2023-08-26T23:20:23.320Z,100294.16
2023-08-26T23:22:51.622Z,100294.22
2023-08-26T23:25:21.385Z,100284.94
2023-08-26T23:27:49.346Z,100293.97
2023-08-26T23:30:17.637Z,100292.03
2023-08-26T23:32:46.030Z,100278.28
2023-08-26T23:35:14.082Z,100298.19
2023-08-26T23:37:42.054Z,100271.31
2023-08-26T23:40:12.171Z,100291.63
2023-08-26T23:42:41.755Z,100291.13
2023-08-26T23:45:10.756Z,100287.25
2023-08-26T23:47:38.829Z,100289.53
2023-08-26T23:50:08.245Z,100296.84
2023-08-26T23:52:36.570Z,100296.50
2023-08-26T23:55:06.229Z,100294.84
2023-08-26T23:57:35.102Z,100306.31
